createdAt,value
2023-03-05T00:00:40.124Z,0.35
2023-03-05T00:03:30.931Z,0.43
2023-03-05T00:06:02.915Z,0.55
2023-03-05T00:08:35.583Z,0.59
2023-03-05T00:11:10.003Z,0.50
2023-03-05T00:13:42.721Z,0.50
2023-03-05T00:16:16.987Z,0.58
2023-03-05T00:18:49.168Z,0.61
2023-03-05T00:21:24.666Z,0.48
2023-03-05T00:23:58.176Z,0.44
2023-03-05T00:26:31.097Z,0.52
2023-03-05T00:29:03.542Z,0.48
2023-03-05T00:31:37.301Z,0.41
2023-03-05T00:34:12.393Z,0.28
2023-03-05T00:36:46.075Z,0.20
2023-03-05T00:39:18.592Z,0.17
2023-03-05T00:41:51.130Z,0.13
2023-03-05T00:44:24.273Z,0.18
2023-03-05T00:46:56.318Z,0.17
2023-03-05T00:49:28.196Z,0.17
2023-03-05T00:52:07.520Z,0.17
2023-03-05T00:54:40.732Z,0.10
2023-03-05T00:57:12.752Z,0.02
2023-03-05T00:59:48.123Z,0.19
2023-03-05T01:02:20.078Z,0.23
2023-03-05T01:04:52.230Z,0.22
2023-03-05T01:07:24.129Z,0.17
2023-03-05T01:09:55.910Z,0.19
2023-03-05T01:12:27.753Z,0.17
2023-03-05T01:14:59.844Z,0.22
2023-03-05T01:17:32.187Z,0.14
2023-03-05T01:20:04.560Z,0.21
2023-03-05T01:22:36.819Z,0.21
2023-03-05T01:25:10.015Z,0.17
2023-03-05T01:27:42.288Z,0.11
2023-03-05T01:30:16.537Z,0.18
2023-03-05T01:32:48.835Z,0.23
2023-03-05T01:35:23.509Z,0.23
2023-03-05T01:37:56.032Z,0.20
2023-03-05T01:40:30.859Z,0.10
2023-03-05T01:43:17.028Z,0.06
2023-03-05T01:46:31.123Z,0.09
2023-03-05T01:49:11.768Z,0.12
2023-03-05T01:51:49.309Z,0.13
2023-03-05T01:54:25.280Z,0.17
2023-03-05T01:56:59.915Z,0.24
2023-03-05T01:59:33.841Z,0.28
2023-03-05T02:02:08.034Z,0.22
2023-03-05T02:04:45.254Z,0.08
2023-03-05T02:07:18.941Z,0.13
2023-03-05T02:09:51.028Z,0.17
2023-03-05T02:12:23.092Z,0.07
2023-03-05T02:14:59.332Z,0.16
2023-03-05T02:17:31.724Z,0.17
2023-03-05T02:20:09.490Z,0.12
2023-03-05T02:22:41.229Z,0.16
2023-03-05T02:25:20.354Z,0.16
2023-03-05T02:28:00.999Z,0.18
2023-03-05T02:30:33.037Z,0.17
2023-03-05T02:33:05.052Z,0.23
2023-03-05T02:35:37.601Z,0.19
2023-03-05T02:38:10.281Z,0.22
2023-03-05T02:40:43.473Z,0.24
2023-03-05T02:43:14.125Z,0.24
2023-03-05T02:45:46.559Z,0.32
2023-03-05T02:48:18.524Z,0.42
2023-03-05T02:50:50.186Z,0.48
2023-03-05T02:53:23.150Z,0.55
2023-03-05T02:55:55.305Z,0.63
2023-03-05T02:58:27.610Z,0.53
2023-03-05T03:01:00.134Z,0.53
2023-03-05T03:03:33.148Z,0.52
2023-03-05T03:06:05.460Z,0.37
2023-03-05T03:08:36.073Z,0.42
2023-03-05T03:11:11.073Z,0.50
2023-03-05T03:13:43.565Z,0.56
2023-03-05T03:16:16.670Z,0.62
2023-03-05T03:18:48.978Z,0.66
2023-03-05T03:21:24.094Z,0.63
2023-03-05T03:23:56.184Z,0.63
2023-03-05T03:26:28.242Z,0.58
2023-03-05T03:29:00.548Z,0.52
2023-03-05T03:31:32.350Z,0.52
2023-03-05T03:34:04.111Z,0.65
2023-03-05T03:36:37.461Z,0.76
2023-03-05T03:39:10.974Z,0.85
2023-03-05T03:41:46.416Z,0.90
2023-03-05T03:44:20.231Z,0.95
2023-03-05T03:46:54.317Z,0.98
2023-03-05T03:49:28.485Z,1.00
2023-03-05T03:52:00.737Z,0.97
2023-03-05T03:54:31.669Z,1.02
2023-03-05T03:57:03.683Z,1.00
2023-03-05T03:59:38.680Z,1.04
2023-03-05T04:02:10.834Z,1.08
2023-03-05T04:04:42.817Z,1.09
2023-03-05T04:07:15.255Z,1.13
2023-03-05T04:09:48.085Z,1.04
2023-03-05T04:12:20.304Z,1.17
2023-03-05T04:14:52.463Z,1.19
2023-03-05T04:17:25.064Z,1.21
2023-03-05T04:19:57.158Z,1.21
2023-03-05T04:22:29.515Z,1.11
2023-03-05T04:25:03.786Z,1.10
2023-03-05T04:27:37.440Z,1.14
2023-03-05T04:30:13.396Z,1.18
2023-03-05T04:32:46.008Z,1.22
2023-03-05T04:35:18.711Z,1.24
2023-03-05T04:37:49.068Z,1.00
2023-03-05T04:40:21.708Z,1.01
2023-03-05T04:42:52.668Z,1.16
2023-03-05T04:45:24.596Z,1.21
2023-03-05T04:47:56.455Z,1.10
2023-03-05T04:50:29.442Z,1.25
2023-03-05T04:53:01.576Z,1.29
2023-03-05T04:55:33.444Z,1.32
2023-03-05T04:58:05.546Z,1.33
2023-03-05T05:00:37.506Z,1.32
2023-03-05T05:03:09.378Z,1.32
2023-03-05T05:05:41.380Z,1.39
2023-03-05T05:08:13.704Z,1.47
2023-03-05T05:11:19.884Z,1.43
2023-03-05T05:15:09.364Z,1.49
2023-03-05T05:18:33.194Z,1.55
2023-03-05T05:21:18.780Z,1.53
2023-03-05T05:23:50.728Z,1.50
2023-03-05T05:26:23.046Z,1.53
2023-03-05T05:28:56.264Z,1.52
2023-03-05T05:31:30.444Z,1.51
2023-03-05T05:34:02.666Z,1.31
2023-03-05T05:36:34.771Z,1.38
2023-03-05T05:39:06.686Z,1.42
2023-03-05T05:41:38.928Z,1.47
2023-03-05T05:44:11.414Z,1.51
2023-03-05T05:46:44.013Z,1.56
2023-03-05T05:49:16.477Z,1.57
2023-03-05T05:51:48.736Z,1.60
2023-03-05T05:54:20.657Z,1.63
2023-03-05T05:56:52.487Z,1.62
2023-03-05T05:59:24.349Z,1.60
2023-03-05T06:01:56.492Z,1.63
2023-03-05T06:04:28.559Z,1.53
2023-03-05T06:07:01.205Z,1.33
2023-03-05T06:09:36.404Z,1.39
2023-03-05T06:12:09.985Z,1.36
2023-03-05T06:14:41.939Z,1.45
2023-03-05T06:17:21.909Z,1.35
2023-03-05T06:19:59.593Z,1.44
2023-03-05T06:22:31.871Z,1.41
2023-03-05T06:25:04.513Z,1.37
2023-03-05T06:27:37.188Z,1.15
2023-03-05T06:30:11.785Z,1.15
2023-03-05T06:32:44.232Z,1.07
2023-03-05T06:35:16.149Z,0.96
2023-03-05T06:37:48.686Z,0.84
2023-03-05T06:40:20.928Z,0.88
2023-03-05T06:42:52.824Z,0.93
2023-03-05T06:45:24.683Z,0.94
2023-03-05T06:47:56.766Z,0.99
2023-03-05T06:50:29.503Z,0.91
2023-03-05T06:53:01.464Z,0.87
2023-03-05T06:55:39.735Z,0.83
2023-03-05T06:58:11.743Z,0.77
2023-03-05T07:00:44.462Z,0.65
2023-03-05T07:03:14.682Z,0.59
2023-03-05T07:05:46.721Z,0.60
2023-03-05T07:08:19.562Z,0.71
2023-03-05T07:10:51.489Z,0.70
2023-03-05T07:13:23.933Z,0.81
2023-03-05T07:15:56.073Z,0.82
2023-03-05T07:18:28.209Z,0.74
2023-03-05T07:21:04.739Z,0.90
2023-03-05T07:23:37.705Z,1.01
2023-03-05T07:26:11.945Z,0.92
2023-03-05T07:28:44.322Z,1.04
2023-03-05T07:31:19.208Z,0.94
2023-03-05T07:33:52.113Z,0.97
2023-03-05T07:36:24.529Z,1.04
2023-03-05T07:38:55.114Z,0.97
2023-03-05T07:41:26.973Z,1.09
2023-03-05T07:43:58.798Z,1.17
2023-03-05T07:46:34.448Z,1.22
2023-03-05T07:49:06.991Z,1.26
2023-03-05T07:51:39.032Z,1.30
2023-03-05T07:54:11.527Z,1.15
2023-03-05T07:56:43.466Z,1.02
2023-03-05T07:59:15.629Z,1.15
2023-03-05T08:01:47.776Z,1.25
2023-03-05T08:04:19.598Z,1.34
2023-03-05T08:06:51.424Z,1.24
2023-03-05T08:09:23.486Z,1.06
2023-03-05T08:11:55.338Z,0.98
2023-03-05T08:14:27.340Z,0.92
2023-03-05T08:16:59.587Z,0.95
2023-03-05T08:19:32.408Z,1.02
2023-03-05T08:22:02.685Z,0.92
2023-03-05T08:24:35.050Z,0.93
2023-03-05T08:27:07.244Z,0.99
2023-03-05T08:29:39.458Z,1.11
2023-03-05T08:32:11.490Z,1.07
2023-03-05T08:34:43.588Z,1.13
2023-03-05T08:37:15.424Z,1.25
2023-03-05T08:39:47.210Z,1.27
2023-03-05T08:42:19.263Z,1.34
2023-03-05T08:44:51.262Z,1.37
2023-03-05T08:47:25.748Z,1.46
2023-03-05T08:49:58.375Z,1.52
2023-03-05T08:52:30.075Z,1.60
2023-03-05T08:55:02.127Z,1.63
2023-03-05T08:57:34.115Z,1.58
2023-03-05T09:00:07.239Z,1.58
2023-03-05T09:02:40.343Z,1.54
2023-03-05T09:05:13.250Z,1.67
2023-03-05T09:07:45.768Z,1.65
2023-03-05T09:10:18.450Z,1.62
2023-03-05T09:12:50.594Z,1.59
2023-03-05T09:15:22.582Z,1.68
2023-03-05T09:17:54.626Z,1.69
2023-03-05T09:20:27.004Z,1.75
2023-03-05T09:22:59.784Z,1.83
2023-03-05T09:25:32.547Z,1.91
2023-03-05T09:28:05.625Z,1.94
2023-03-05T09:30:38.020Z,1.99
2023-03-05T09:33:10.040Z,2.03
2023-03-05T09:35:41.929Z,2.02
2023-03-05T09:38:13.737Z,2.03
2023-03-05T09:40:53.195Z,2.11
2023-03-05T09:43:37.678Z,2.11
2023-03-05T09:46:24.833Z,2.19
2023-03-05T09:49:02.260Z,2.25
2023-03-05T09:51:42.420Z,2.29
2023-03-05T09:54:18.985Z,2.37
2023-03-05T09:57:40.851Z,2.44
2023-03-05T10:00:28.774Z,2.46
2023-03-05T10:03:05.492Z,2.61
2023-03-05T10:05:54.551Z,2.67
2023-03-05T10:08:32.687Z,2.82
2023-03-05T10:11:14.347Z,2.82
2023-03-05T10:13:48.730Z,2.84
2023-03-05T10:16:42.687Z,2.90
2023-03-05T10:19:25.475Z,2.92
2023-03-05T10:22:14.091Z,2.92
2023-03-05T10:24:57.508Z,2.98
2023-03-05T10:27:41.494Z,3.00
2023-03-05T10:30:32.959Z,2.96
2023-03-05T10:33:16.344Z,3.05
2023-03-05T10:36:11.189Z,3.18
2023-03-05T10:39:24.990Z,3.21
2023-03-05T10:42:05.885Z,3.31
2023-03-05T10:44:42.490Z,3.31
2023-03-05T10:47:23.692Z,3.34
2023-03-05T10:49:57.043Z,3.35
2023-03-05T10:52:34.608Z,3.29
2023-03-05T10:55:18.292Z,3.30
2023-03-05T10:57:50.713Z,3.30
2023-03-05T11:00:25.698Z,3.24
2023-03-05T11:03:01.088Z,3.30
2023-03-05T11:05:41.357Z,3.27
2023-03-05T11:08:28.629Z,3.14
2023-03-05T11:11:14.410Z,3.09
2023-03-05T11:14:03.981Z,3.01
2023-03-05T11:16:48.426Z,2.92
2023-03-05T11:19:26.753Z,2.90
2023-03-05T11:22:16.179Z,2.83
2023-03-05T11:25:14.091Z,2.83
2023-03-05T11:27:54.729Z,2.78
2023-03-05T11:30:32.392Z,2.75
2023-03-05T11:33:15.760Z,2.66
2023-03-05T11:35:50.649Z,2.56
2023-03-05T11:38:25.798Z,2.51
2023-03-05T11:40:58.481Z,2.44
2023-03-05T11:43:31.009Z,2.30
2023-03-05T11:46:04.984Z,2.16
2023-03-05T11:48:39.554Z,2.17
2023-03-05T11:51:21.179Z,2.15
2023-03-05T11:54:02.114Z,2.11
2023-03-05T11:56:38.116Z,2.14
2023-03-05T11:59:16.539Z,2.12
2023-03-05T12:01:51.495Z,2.20
2023-03-05T12:04:24.691Z,2.25
2023-03-05T12:06:59.647Z,2.27
2023-03-05T12:09:42.177Z,2.17
2023-03-05T12:12:35.874Z,2.24
2023-03-05T12:15:32.568Z,2.22
2023-03-05T12:18:14.619Z,2.25
2023-03-05T12:20:52.779Z,2.20
2023-03-05T12:23:26.949Z,2.22
2023-03-05T12:26:01.489Z,2.19
2023-03-05T12:29:01.371Z,2.13
2023-03-05T12:31:40.433Z,2.10
2023-03-05T12:34:49.611Z,2.11
2023-03-05T12:37:57.330Z,2.19
2023-03-05T12:40:31.050Z,2.22
2023-03-05T12:43:04.316Z,2.19
2023-03-05T12:45:40.919Z,2.24
2023-03-05T12:48:44.067Z,2.20
2023-03-05T12:51:29.974Z,2.20
2023-03-05T12:54:32.151Z,2.15
2023-03-05T12:57:07.432Z,2.18
2023-03-05T12:59:47.551Z,2.19
2023-03-05T13:02:36.240Z,2.21
2023-03-05T13:05:20.730Z,2.29
2023-03-05T13:07:53.160Z,2.30
2023-03-05T13:10:27.850Z,2.25
2023-03-05T13:13:02.572Z,2.19
2023-03-05T13:15:35.389Z,2.21
2023-03-05T13:18:08.563Z,2.26
2023-03-05T13:20:43.132Z,2.29
2023-03-05T13:23:21.580Z,2.27
2023-03-05T13:26:15.288Z,2.36
2023-03-05T13:29:03.641Z,2.26
2023-03-05T13:31:37.630Z,2.40
2023-03-05T13:34:19.109Z,2.47
2023-03-05T13:36:57.093Z,2.54
2023-03-05T13:39:32.579Z,2.45
2023-03-05T13:42:07.023Z,2.41
2023-03-05T13:44:39.799Z,2.57
2023-03-05T13:47:20.947Z,2.65
2023-03-05T13:50:00.251Z,2.67
2023-03-05T13:52:33.868Z,2.73
2023-03-05T13:55:14.645Z,2.72
2023-03-05T13:57:49.983Z,2.75
2023-03-05T14:00:42.211Z,2.99
2023-03-05T14:03:26.134Z,3.04
2023-03-05T14:05:58.852Z,3.05
2023-03-05T14:08:31.631Z,2.94
2023-03-05T14:11:15.344Z,2.89
2023-03-05T14:13:47.626Z,3.00
2023-03-05T14:16:28.096Z,3.07
2023-03-05T14:19:01.537Z,2.92
2023-03-05T14:21:50.917Z,2.87
2023-03-05T14:24:28.413Z,2.90
2023-03-05T14:27:03.307Z,2.84
2023-03-05T14:29:37.591Z,2.84
2023-03-05T14:32:19.972Z,2.81
2023-03-05T14:34:56.291Z,2.87
2023-03-05T14:37:31.387Z,2.95
2023-03-05T14:40:07.308Z,2.94
2023-03-05T14:42:51.490Z,3.00
2023-03-05T14:45:27.395Z,3.10
2023-03-05T14:48:01.801Z,3.32
2023-03-05T14:50:36.586Z,3.42
2023-03-05T14:53:14.174Z,3.37
2023-03-05T14:55:49.272Z,3.28
2023-03-05T14:58:26.042Z,3.28
2023-03-05T15:00:58.417Z,3.31
2023-03-05T15:03:30.325Z,3.23
2023-03-05T15:06:03.086Z,3.30
2023-03-05T15:08:33.455Z,3.22
2023-03-05T15:11:06.887Z,3.25
2023-03-05T15:13:38.999Z,3.25
2023-03-05T15:16:16.749Z,3.22
2023-03-05T15:18:48.889Z,3.20
2023-03-05T15:21:20.860Z,3.12
2023-03-05T15:23:52.669Z,3.04
2023-03-05T15:26:24.500Z,3.11
2023-03-05T15:31:38.311Z,3.08
2023-03-05T15:34:10.411Z,3.07
2023-03-05T15:36:42.660Z,3.09
2023-03-05T15:39:15.258Z,3.02
2023-03-05T15:41:47.332Z,3.08
2023-03-05T15:44:19.282Z,3.05
2023-03-05T15:46:51.217Z,3.06
2023-03-05T15:49:24.344Z,2.96
2023-03-05T15:51:58.194Z,2.87
2023-03-05T15:54:31.585Z,2.90
2023-03-05T15:57:03.468Z,2.86
2023-03-05T15:59:35.294Z,2.86
2023-03-05T16:02:08.094Z,2.83
2023-03-05T16:04:40.117Z,2.83
2023-03-05T16:07:12.897Z,2.83
2023-03-05T16:09:48.293Z,2.81
2023-03-05T16:12:24.740Z,2.77
2023-03-05T16:14:56.609Z,2.66
2023-03-05T16:17:28.730Z,2.66
2023-03-05T16:20:01.158Z,2.64
2023-03-05T16:22:33.164Z,2.65
2023-03-05T16:25:05.277Z,2.60
2023-03-05T16:27:37.449Z,2.61
2023-03-05T16:30:14.978Z,2.56
2023-03-05T16:32:46.894Z,2.46
2023-03-05T16:35:19.095Z,2.39
2023-03-05T16:37:51.241Z,2.38
2023-03-05T16:40:23.912Z,2.34
2023-03-05T16:42:56.282Z,2.31
2023-03-05T16:45:28.090Z,2.29
2023-03-05T16:48:00.808Z,2.26
2023-03-05T16:50:32.883Z,2.25
2023-03-05T16:53:04.901Z,2.24
2023-03-05T16:55:37.502Z,2.27
2023-03-05T16:58:09.299Z,2.26
2023-03-05T17:00:41.868Z,2.27
2023-03-05T17:03:13.987Z,2.18
2023-03-05T17:05:45.788Z,2.28
2023-03-05T17:08:18.700Z,2.32
2023-03-05T17:10:50.840Z,2.33
2023-03-05T17:13:22.940Z,2.23
2023-03-05T17:15:56.964Z,2.17
2023-03-05T17:18:29.561Z,2.15
2023-03-05T17:21:02.052Z,2.15
2023-03-05T17:23:33.949Z,2.13
2023-03-05T17:26:07.763Z,2.12
2023-03-05T17:28:40.711Z,2.22
2023-03-05T17:31:13.167Z,2.16
2023-03-05T17:33:45.322Z,2.10
2023-03-05T17:36:19.505Z,2.16
2023-03-05T17:38:52.811Z,2.10
2023-03-05T17:41:26.959Z,2.07
2023-03-05T17:43:59.004Z,2.08
2023-03-05T17:46:30.956Z,1.98
2023-03-05T17:49:03.211Z,1.92
2023-03-05T17:51:35.769Z,1.90
2023-03-05T17:54:09.604Z,1.84
2023-03-05T17:56:41.820Z,1.80
2023-03-05T17:59:13.972Z,1.83
2023-03-05T18:01:45.908Z,1.83
2023-03-05T18:04:19.334Z,1.84
2023-03-05T18:06:51.366Z,1.82
2023-03-05T18:09:23.720Z,1.80
2023-03-05T18:11:57.419Z,1.88
2023-03-05T18:14:29.733Z,1.86
2023-03-05T18:17:01.458Z,1.82
2023-03-05T18:19:33.558Z,1.76
2023-03-05T18:22:05.542Z,1.75
2023-03-05T18:24:37.807Z,1.81
2023-03-05T18:27:10.265Z,1.79
2023-03-05T18:29:40.915Z,1.78
2023-03-05T18:32:12.969Z,1.82
2023-03-05T18:34:45.138Z,1.78
2023-03-05T18:37:17.390Z,1.79
2023-03-05T18:39:49.524Z,1.77
2023-03-05T18:42:22.482Z,1.85
2023-03-05T18:44:56.285Z,1.74
2023-03-05T18:47:29.452Z,1.76
2023-03-05T18:50:01.515Z,1.76
2023-03-05T18:52:33.386Z,1.82
2023-03-05T18:55:05.881Z,1.79
2023-03-05T18:57:38.645Z,1.71
2023-03-05T19:00:15.702Z,1.79
2023-03-05T19:02:48.298Z,1.76
2023-03-05T19:05:22.624Z,1.73
2023-03-05T19:07:55.332Z,1.74
2023-03-05T19:10:27.711Z,1.73
2023-03-05T19:13:34.088Z,1.62
2023-03-05T19:16:12.418Z,1.56
2023-03-05T19:19:06.350Z,1.56
2023-03-05T19:21:49.093Z,1.56
2023-03-05T19:24:21.341Z,1.49
2023-03-05T19:26:55.968Z,1.47
2023-03-05T19:29:30.177Z,1.44
2023-03-05T19:32:02.011Z,1.48
2023-03-05T19:34:34.574Z,1.56
2023-03-05T19:37:07.078Z,1.47
2023-03-05T19:39:37.930Z,1.52
2023-03-05T19:42:10.189Z,1.59
2023-03-05T19:44:41.023Z,1.55
2023-03-05T19:47:13.189Z,1.48
2023-03-05T19:49:45.057Z,1.44
2023-03-05T19:52:17.084Z,1.36
2023-03-05T19:54:49.066Z,1.60
2023-03-05T19:57:20.962Z,1.57
2023-03-05T19:59:55.396Z,1.54
2023-03-05T20:02:27.205Z,1.64
2023-03-05T20:04:59.183Z,1.62
2023-03-05T20:07:30.998Z,1.54
2023-03-05T20:10:02.856Z,1.45
2023-03-05T20:12:36.314Z,1.43
2023-03-05T20:15:10.122Z,1.41
2023-03-05T20:17:45.837Z,1.37
2023-03-05T20:20:19.544Z,1.36
2023-03-05T20:22:51.770Z,1.32
2023-03-05T20:25:24.953Z,1.35
2023-03-05T20:27:57.040Z,1.31
2023-03-05T20:30:29.343Z,1.19
2023-03-05T20:33:01.356Z,1.14
2023-03-05T20:35:33.558Z,1.05
2023-03-05T20:38:26.089Z,1.01
2023-03-05T20:40:58.857Z,0.94
2023-03-05T20:43:32.623Z,0.90
2023-03-05T20:46:05.714Z,0.90
2023-03-05T20:48:37.730Z,0.93
2023-03-05T20:51:18.565Z,0.94
2023-03-05T20:53:51.116Z,1.07
2023-03-05T20:56:23.974Z,1.12
2023-03-05T20:58:58.210Z,1.17
2023-03-05T21:01:30.433Z,1.19
2023-03-05T21:04:03.026Z,1.23
2023-03-05T21:06:34.242Z,1.26
2023-03-05T21:09:06.588Z,1.29
2023-03-05T21:11:38.559Z,1.28
2023-03-05T21:14:10.646Z,1.26
2023-03-05T21:16:43.692Z,1.24
2023-03-05T21:19:16.397Z,1.22
2023-03-05T21:21:48.937Z,1.22
2023-03-05T21:24:56.872Z,1.18
2023-03-05T21:27:28.909Z,1.17
2023-03-05T21:30:00.778Z,1.18
2023-03-05T21:32:32.845Z,1.20
2023-03-05T21:35:04.852Z,1.20
2023-03-05T21:37:42.429Z,1.22
2023-03-05T21:40:17.776Z,1.15
2023-03-05T21:42:50.501Z,0.94
2023-03-05T21:45:24.811Z,0.90
2023-03-05T21:47:58.845Z,0.94
2023-03-05T21:50:33.443Z,0.96
2023-03-05T21:53:05.422Z,0.95
2023-03-05T21:56:25.265Z,1.04
2023-03-05T21:58:57.489Z,1.06
2023-03-05T22:01:29.629Z,1.12
2023-03-05T22:04:01.621Z,1.16
2023-03-05T22:06:33.531Z,1.13
2023-03-05T22:09:05.789Z,1.10
2023-03-05T22:11:38.149Z,1.12
2023-03-05T22:14:10.112Z,1.08
2023-03-05T22:16:41.925Z,1.01
2023-03-05T22:19:14.053Z,0.98
2023-03-05T22:21:46.015Z,0.97
2023-03-05T22:24:18.198Z,0.96
2023-03-05T22:26:49.986Z,0.92
2023-03-05T22:29:22.211Z,0.90
2023-03-05T22:31:56.620Z,0.92
2023-03-05T22:34:29.099Z,0.89
2023-03-05T22:37:00.976Z,0.87
2023-03-05T22:39:32.797Z,0.81
2023-03-05T22:42:04.642Z,0.87
2023-03-05T22:44:36.357Z,0.88
2023-03-05T22:47:08.363Z,0.85
2023-03-05T22:49:40.722Z,0.74
2023-03-05T22:52:11.504Z,0.62
2023-03-05T22:54:43.224Z,0.64
2023-03-05T22:57:15.121Z,0.64
2023-03-05T22:59:49.615Z,0.65
2023-03-05T23:02:21.451Z,0.64
2023-03-05T23:04:55.017Z,0.61
2023-03-05T23:07:28.882Z,0.59
2023-03-05T23:10:03.392Z,0.60
2023-03-05T23:12:37.703Z,0.59
2023-03-05T23:15:13.622Z,0.56
2023-03-05T23:17:45.564Z,0.55
2023-03-05T23:20:21.381Z,0.55
2023-03-05T23:22:55.750Z,0.58
2023-03-05T23:25:29.567Z,0.56
2023-03-05T23:28:03.024Z,0.57
2023-03-05T23:30:37.246Z,0.54
2023-03-05T23:33:14.551Z,0.53
2023-03-05T23:35:53.092Z,0.43
2023-03-05T23:38:26.093Z,0.45
2023-03-05T23:41:01.078Z,0.45
2023-03-05T23:43:33.163Z,0.44
2023-03-05T23:46:10.788Z,0.40
2023-03-05T23:48:42.737Z,0.43
2023-03-05T23:51:14.946Z,0.34
2023-03-05T23:53:48.642Z,0.39
2023-03-05T23:56:20.419Z,0.38
2023-03-05T23:58:55.980Z,0.36
